createdAt,value
2019-03-12T00:00:49.400Z,0.90
2019-03-12T00:03:54.486Z,1.20
2019-03-12T00:06:59.680Z,1.43
2019-03-12T00:10:04.913Z,1.10
2019-03-12T00:13:10.330Z,1.23
2019-03-12T00:16:15.500Z,1.27
2019-03-12T00:19:20.613Z,0.97
2019-03-12T00:22:25.719Z,0.90
2019-03-12T00:25:30.906Z,1.00
2019-03-12T00:28:35.913Z,0.90
2019-03-12T00:31:40.962Z,2.00
2019-03-12T00:34:45.876Z,1.57
2019-03-12T00:37:53.435Z,1.13
2019-03-12T00:40:58.451Z,1.20
2019-03-12T00:44:03.454Z,1.07
2019-03-12T00:47:08.604Z,1.50
2019-03-12T00:50:14.186Z,0.90
2019-03-12T00:53:19.300Z,0.90
2019-03-12T00:56:24.224Z,2.20
2019-03-12T00:59:29.230Z,2.50
2019-03-12T01:02:34.620Z,1.27
2019-03-12T01:05:39.809Z,1.83
2019-03-12T01:08:44.808Z,1.43
2019-03-12T01:11:49.916Z,1.73
2019-03-12T01:14:55.038Z,1.40
2019-03-12T01:17:59.867Z,2.70
2019-03-12T01:21:04.943Z,1.47
2019-03-12T01:24:10.003Z,2.27
2019-03-12T01:27:14.743Z,1.37
2019-03-12T01:30:25.293Z,1.20
2019-03-12T01:33:30.641Z,1.60
2019-03-12T01:36:35.629Z,3.37
2019-03-12T01:39:40.697Z,1.30
2019-03-12T01:42:45.802Z,1.77
2019-03-12T01:45:50.875Z,1.70
2019-03-12T01:48:56.088Z,1.63
2019-03-12T01:52:01.128Z,2.63
2019-03-12T01:55:06.788Z,1.47
2019-03-12T01:58:14.466Z,1.20
2019-03-12T02:01:17.810Z,1.87
2019-03-12T02:04:22.971Z,1.57
2019-03-12T02:07:28.273Z,1.10
2019-03-12T02:10:33.341Z,1.30
2019-03-12T02:13:38.159Z,1.13
2019-03-12T02:16:43.118Z,1.00
2019-03-12T02:19:48.006Z,1.40
2019-03-12T02:22:53.180Z,1.33
2019-03-12T02:25:58.123Z,1.30
2019-03-12T02:29:03.345Z,1.60
2019-03-12T02:32:08.954Z,1.33
2019-03-12T02:35:15.144Z,1.40
2019-03-12T02:38:20.192Z,1.77
2019-03-12T02:41:25.185Z,1.67
2019-03-12T02:44:30.012Z,3.37
2019-03-12T02:47:35.166Z,1.93
2019-03-12T02:50:40.355Z,2.50
2019-03-12T02:53:45.350Z,2.07
2019-03-12T02:56:50.430Z,2.50
2019-03-12T02:59:55.410Z,2.60
2019-03-12T03:03:00.533Z,4.17
2019-03-12T03:06:13.635Z,2.30
2019-03-12T03:09:18.676Z,2.13
2019-03-12T03:12:23.932Z,3.50
2019-03-12T03:15:34.022Z,4.90
2019-03-12T03:18:38.945Z,2.47
2019-03-12T03:21:50.324Z,4.10
2019-03-12T03:24:55.566Z,2.20
2019-03-12T03:28:00.510Z,2.80
2019-03-12T03:31:05.593Z,1.90
2019-03-12T03:34:10.480Z,2.43
2019-03-12T03:37:15.752Z,1.90
2019-03-12T03:40:27.940Z,2.93
2019-03-12T03:43:32.915Z,4.17
2019-03-12T03:46:37.896Z,3.70
2019-03-12T03:49:43.123Z,3.50
2019-03-12T03:52:48.189Z,2.60
2019-03-12T03:55:53.090Z,1.80
2019-03-12T03:58:58.151Z,4.20
2019-03-12T04:02:03.443Z,3.33
2019-03-12T04:05:29.003Z,2.93
2019-03-12T04:08:33.894Z,2.80
2019-03-12T04:11:38.894Z,2.60
2019-03-12T04:14:44.037Z,3.07
2019-03-12T04:17:48.986Z,1.93
2019-03-12T04:20:53.854Z,3.50
2019-03-12T04:23:58.764Z,2.13
2019-03-12T04:27:03.800Z,3.30
2019-03-12T04:30:10.078Z,4.43
2019-03-12T04:34:07.734Z,2.93
2019-03-12T04:37:12.632Z,2.57
2019-03-12T04:40:17.765Z,2.67
2019-03-12T04:43:22.739Z,5.00
2019-03-12T04:46:27.698Z,2.20
2019-03-12T04:49:32.719Z,2.87
2019-03-12T04:52:37.771Z,2.60
2019-03-12T04:55:42.605Z,2.90
2019-03-12T04:58:47.544Z,5.00
2019-03-12T05:01:52.500Z,2.40
2019-03-12T05:04:57.527Z,3.07
2019-03-12T05:08:02.625Z,5.23
2019-03-12T05:11:07.708Z,4.37
2019-03-12T05:14:28.268Z,4.97
2019-03-12T05:17:34.801Z,3.83
2019-03-12T05:20:39.706Z,3.00
2019-03-12T05:23:44.657Z,3.83
2019-03-12T05:26:50.077Z,5.53
2019-03-12T05:29:55.043Z,3.27
2019-03-12T05:32:59.944Z,4.50
2019-03-12T05:36:05.101Z,3.73
2019-03-12T05:39:10.022Z,4.37
2019-03-12T05:42:15.039Z,5.67
2019-03-12T05:45:20.440Z,3.33
2019-03-12T05:48:25.689Z,5.53
2019-03-12T05:51:30.693Z,4.10
2019-03-12T05:54:35.954Z,2.70
2019-03-12T05:57:40.893Z,4.40
2019-03-12T06:00:45.841Z,6.63
2019-03-12T06:03:50.942Z,3.43
2019-03-12T06:06:55.982Z,3.37
2019-03-12T06:10:02.322Z,3.00
2019-03-12T06:13:07.468Z,6.43
2019-03-12T06:16:12.711Z,4.47
2019-03-12T06:19:17.629Z,3.30
2019-03-12T06:22:22.758Z,8.97
2019-03-12T06:25:27.996Z,8.73
2019-03-12T06:28:33.024Z,3.43
2019-03-12T06:31:46.053Z,3.90
2019-03-12T06:35:10.001Z,6.30
2019-03-12T06:38:24.419Z,5.13
2019-03-12T06:41:48.286Z,3.23
2019-03-12T06:45:08.948Z,6.33
2019-03-12T06:48:35.844Z,6.83
2019-03-12T06:52:12.176Z,4.63
2019-03-12T06:55:28.796Z,4.13
2019-03-12T06:58:46.490Z,5.40
2019-03-12T07:02:09.230Z,7.90
2019-03-12T07:05:29.595Z,4.17
2019-03-12T07:09:02.689Z,6.67
2019-03-12T07:12:19.968Z,8.07
2019-03-12T07:15:36.194Z,3.67
2019-03-12T07:18:50.086Z,5.60
2019-03-12T07:22:05.484Z,7.07
2019-03-12T07:25:19.820Z,1.33
2019-03-12T07:28:50.755Z,4.17
2019-03-12T07:32:23.352Z,1.00
2019-03-12T07:35:37.102Z,0.77
2019-03-12T07:39:01.003Z,1.80
2019-03-12T07:42:20.802Z,2.20
2019-03-12T07:45:30.214Z,6.07
2019-03-12T07:48:51.033Z,1.10
2019-03-12T07:52:13.777Z,2.73
2019-03-12T07:55:39.492Z,5.60
2019-03-12T07:59:03.430Z,1.90
2019-03-12T08:02:25.472Z,1.77
2019-03-12T08:05:51.134Z,1.03
2019-03-12T08:09:17.859Z,1.10
2019-03-12T08:12:34.449Z,1.40
2019-03-12T08:16:22.668Z,2.20
2019-03-12T08:19:46.364Z,1.40
2019-03-12T08:23:09.247Z,0.70
2019-03-12T08:26:23.014Z,0.93
2019-03-12T08:30:05.042Z,4.10
2019-03-12T08:33:49.877Z,1.00
2019-03-12T08:36:51.297Z,2.23
2019-03-12T08:40:18.510Z,1.10
2019-03-12T08:43:32.265Z,1.00
2019-03-12T08:47:14.329Z,1.83
2019-03-12T08:50:56.393Z,1.20
2019-03-12T08:54:28.872Z,1.40
2019-03-12T08:57:41.770Z,0.73
2019-03-12T09:01:05.977Z,1.00
2019-03-12T09:04:21.129Z,2.97
2019-03-12T09:07:55.372Z,0.63
2019-03-12T09:11:15.921Z,0.70
2019-03-12T09:14:38.911Z,0.60
2019-03-12T09:18:05.604Z,1.13
2019-03-12T09:21:35.326Z,3.77
2019-03-12T09:24:56.698Z,1.30
2019-03-12T09:28:20.439Z,1.63
2019-03-12T09:31:43.276Z,1.50
2019-03-12T09:35:07.744Z,0.70
2019-03-12T09:38:40.799Z,1.43
2019-03-12T09:42:01.865Z,1.00
2019-03-12T09:45:33.069Z,1.57
2019-03-12T09:48:56.373Z,1.60
2019-03-12T09:52:09.193Z,3.57
2019-03-12T09:55:45.441Z,1.37
2019-03-12T09:59:21.405Z,0.60
2019-03-12T10:02:51.153Z,1.63
2019-03-12T10:06:15.557Z,2.30
2019-03-12T10:09:48.430Z,0.90
2019-03-12T10:13:18.130Z,0.70
2019-03-12T10:17:00.448Z,1.67
2019-03-12T10:20:22.612Z,0.80
2019-03-12T10:24:04.891Z,2.07
2019-03-12T10:27:34.477Z,0.70
2019-03-12T10:31:01.102Z,0.70
2019-03-12T10:34:29.582Z,3.00
2019-03-12T10:37:52.249Z,3.12
2019-03-12T10:41:16.882Z,1.02
2019-03-12T10:44:35.000Z,1.42
2019-03-12T10:47:40.065Z,0.70
2019-03-12T10:50:45.352Z,1.35
2019-03-12T10:53:50.292Z,1.35
2019-03-12T10:56:55.842Z,0.60
2019-03-12T11:00:00.788Z,0.95
2019-03-12T11:03:06.099Z,0.90
2019-03-12T11:06:11.239Z,1.50
2019-03-12T11:09:16.135Z,0.75
2019-03-12T11:12:21.180Z,1.20
2019-03-12T11:15:26.285Z,0.73
2019-03-12T11:18:31.163Z,0.93
2019-03-12T11:21:36.116Z,2.03
2019-03-12T11:24:41.282Z,1.33
2019-03-12T11:27:46.130Z,1.50
2019-03-12T11:30:51.600Z,1.53
2019-03-12T11:33:56.630Z,3.13
2019-03-12T11:37:01.873Z,0.70
2019-03-12T11:40:08.585Z,0.57
2019-03-12T11:43:13.795Z,1.30
2019-03-12T11:46:19.131Z,1.60
2019-03-12T11:49:24.106Z,2.17
2019-03-12T11:52:29.099Z,1.57
2019-03-12T11:55:34.180Z,1.47
2019-03-12T11:58:39.465Z,1.43
2019-03-12T12:01:44.432Z,1.00
2019-03-12T12:04:49.473Z,0.70
2019-03-12T12:07:54.622Z,1.00
2019-03-12T12:10:59.648Z,0.83
2019-03-12T12:14:04.798Z,0.77
2019-03-12T12:17:09.671Z,0.80
2019-03-12T12:20:28.349Z,0.70
2019-03-12T12:23:21.863Z,0.93
2019-03-12T12:26:26.868Z,0.90
2019-03-12T12:29:32.241Z,0.80
2019-03-12T12:32:37.332Z,0.77
2019-03-12T12:35:42.391Z,1.30
2019-03-12T12:38:47.363Z,1.40
2019-03-12T12:41:52.205Z,0.70
2019-03-12T12:44:57.159Z,1.10
2019-03-12T12:48:02.116Z,3.13
2019-03-12T12:51:13.023Z,1.77
2019-03-12T12:54:18.159Z,2.85
2019-03-12T12:57:23.344Z,1.10
2019-03-12T13:00:28.483Z,0.70
2019-03-12T13:03:33.412Z,1.63
2019-03-12T13:06:38.236Z,0.70
2019-03-12T13:09:43.685Z,1.02
2019-03-12T13:12:48.796Z,1.02
2019-03-12T13:15:53.782Z,1.02
2019-03-12T13:18:58.722Z,0.70
2019-03-12T13:22:03.846Z,0.85
2019-03-12T13:25:09.154Z,1.07
2019-03-12T13:28:14.285Z,1.75
2019-03-12T13:31:19.477Z,0.90
2019-03-12T13:34:24.555Z,0.90
2019-03-12T13:37:30.475Z,0.95
2019-03-12T13:40:40.044Z,1.27
2019-03-12T13:43:44.895Z,0.93
2019-03-12T13:46:53.899Z,0.60
2019-03-12T13:49:59.139Z,0.67
2019-03-12T13:53:04.109Z,0.80
2019-03-12T13:56:09.240Z,1.67
2019-03-12T13:59:14.176Z,0.60
2019-03-12T14:02:19.085Z,0.80
2019-03-12T14:05:24.164Z,1.27
2019-03-12T14:08:29.204Z,0.60
2019-03-12T14:11:34.221Z,0.50
2019-03-12T14:14:43.056Z,1.27
2019-03-12T14:17:48.062Z,1.00
2019-03-12T14:20:55.705Z,0.50
2019-03-12T14:24:04.361Z,0.90
2019-03-12T14:27:09.897Z,0.50
2019-03-12T14:30:15.546Z,0.80
2019-03-12T14:33:20.652Z,1.43
2019-03-12T14:36:25.796Z,0.60
2019-03-12T14:39:31.026Z,2.50
2019-03-12T14:42:36.168Z,0.70
2019-03-12T14:45:46.116Z,0.57
2019-03-12T14:48:59.300Z,4.63
2019-03-12T14:52:23.298Z,0.97
2019-03-12T14:55:28.278Z,0.50
2019-03-12T14:58:33.665Z,0.80
2019-03-12T15:01:38.608Z,0.93
2019-03-12T15:04:43.729Z,3.27
2019-03-12T15:07:48.851Z,2.23
2019-03-12T15:10:59.223Z,0.90
2019-03-12T15:14:04.671Z,0.70
2019-03-12T15:17:09.662Z,1.70
2019-03-12T15:20:15.712Z,0.53
2019-03-12T15:23:20.681Z,0.60
2019-03-12T15:26:25.646Z,0.60
2019-03-12T15:29:30.647Z,1.03
2019-03-12T15:32:38.571Z,0.60
2019-03-12T15:35:43.541Z,0.60
2019-03-12T15:38:48.440Z,1.00
2019-03-12T15:41:53.369Z,0.50
2019-03-12T15:44:58.548Z,20.23
2019-03-12T15:48:07.640Z,7.83
2019-03-12T15:51:12.741Z,0.90
2019-03-12T15:54:18.079Z,0.90
2019-03-12T15:57:23.081Z,1.17
2019-03-12T16:00:28.170Z,1.60
2019-03-12T16:03:33.288Z,1.37
2019-03-12T16:06:38.274Z,1.53
2019-03-12T16:09:43.402Z,1.20
2019-03-12T16:12:48.440Z,1.00
2019-03-12T16:15:53.613Z,2.57
2019-03-12T16:18:58.601Z,2.10
2019-03-12T16:22:03.444Z,0.57
2019-03-12T16:25:08.753Z,4.70
2019-03-12T16:28:14.175Z,2.43
2019-03-12T16:31:19.069Z,5.13
2019-03-12T16:34:24.079Z,4.00
2019-03-12T16:37:29.348Z,4.73
2019-03-12T16:40:37.329Z,1.67
2019-03-12T16:43:43.429Z,1.90
2019-03-12T16:46:48.512Z,1.97
2019-03-12T16:49:54.202Z,2.00
2019-03-12T16:52:59.489Z,1.53
2019-03-12T16:56:04.465Z,1.23
2019-03-12T16:59:09.575Z,2.30
2019-03-12T17:02:14.598Z,3.77
2019-03-12T17:05:20.232Z,2.33
2019-03-12T17:08:25.371Z,0.97
2019-03-12T17:11:30.380Z,4.63
2019-03-12T17:14:39.102Z,1.40
2019-03-12T17:17:42.639Z,5.47
2019-03-12T17:20:47.774Z,3.50
2019-03-12T17:23:58.146Z,7.50
2019-03-12T17:27:03.158Z,1.87
2019-03-12T17:30:11.272Z,3.33
2019-03-12T17:33:16.484Z,5.30
2019-03-12T17:36:22.184Z,4.92
2019-03-12T17:39:32.774Z,7.33
2019-03-12T17:42:37.904Z,4.23
2019-03-12T17:45:42.809Z,5.40
2019-03-12T17:48:48.379Z,7.63
2019-03-12T17:51:53.498Z,7.63
2019-03-12T17:54:58.608Z,5.37
2019-03-12T17:58:03.626Z,6.60
2019-03-12T18:01:08.854Z,6.00
2019-03-12T18:04:13.985Z,6.43
2019-03-12T18:07:19.065Z,12.10
2019-03-12T18:10:25.566Z,6.03
2019-03-12T18:13:30.823Z,8.80
2019-03-12T18:16:41.102Z,8.00
2019-03-12T18:19:42.768Z,8.67
2019-03-12T18:22:51.029Z,9.00
2019-03-12T18:25:56.241Z,5.57
2019-03-12T18:29:01.498Z,5.73
2019-03-12T18:32:06.571Z,6.80
2019-03-12T18:35:11.873Z,10.20
2019-03-12T18:38:16.933Z,5.00
2019-03-12T18:41:22.169Z,4.23
2019-03-12T18:44:27.345Z,4.60
2019-03-12T18:47:32.331Z,5.20
2019-03-12T18:50:39.925Z,4.50
2019-03-12T18:53:46.440Z,9.00
2019-03-12T18:56:51.488Z,5.33
2019-03-12T18:59:57.682Z,5.97
2019-03-12T19:03:02.647Z,5.80
2019-03-12T19:06:10.421Z,3.80
2019-03-12T19:09:15.436Z,5.07
2019-03-12T19:12:26.109Z,4.70
2019-03-12T19:15:34.093Z,9.80
2019-03-12T19:18:39.285Z,9.00
2019-03-12T19:21:44.250Z,7.97
2019-03-12T19:24:50.512Z,12.67
2019-03-12T19:28:00.349Z,10.97
2019-03-12T19:31:29.380Z,12.83
2019-03-12T19:34:37.333Z,8.07
2019-03-12T19:37:43.254Z,7.33
2019-03-12T19:40:51.926Z,6.70
2019-03-12T19:43:56.737Z,6.20
2019-03-12T19:47:04.495Z,5.53
2019-03-12T19:50:11.572Z,5.07
2019-03-12T19:53:16.965Z,5.47
2019-03-12T19:56:22.296Z,7.80
2019-03-12T19:59:39.805Z,4.60
2019-03-12T20:02:50.801Z,5.23
2019-03-12T20:05:56.615Z,5.20
2019-03-12T20:09:01.554Z,7.40
2019-03-12T20:12:51.886Z,4.70
2019-03-12T20:16:54.433Z,6.03
2019-03-12T20:20:35.106Z,4.23
2019-03-12T20:24:39.542Z,6.50
2019-03-12T20:28:44.586Z,5.53
2019-03-12T20:32:19.121Z,5.40
2019-03-12T20:36:04.229Z,7.17
2019-03-12T20:39:48.483Z,5.57
2019-03-12T20:43:40.467Z,6.87
2019-03-12T20:47:36.372Z,6.93
2019-03-12T20:51:25.373Z,7.60
2019-03-12T20:55:10.277Z,7.07
2019-03-12T20:58:51.105Z,10.30
2019-03-12T21:02:32.637Z,6.20
2019-03-12T21:06:24.953Z,5.97
2019-03-12T21:10:15.466Z,8.50
2019-03-12T21:13:58.954Z,7.30
2019-03-12T21:17:33.167Z,8.50
2019-03-12T21:21:30.199Z,9.90
2019-03-12T21:25:13.974Z,7.37
2019-03-12T21:28:26.770Z,8.13
2019-03-12T21:31:32.087Z,5.50
2019-03-12T21:34:37.812Z,6.87
2019-03-12T21:37:45.340Z,5.30
2019-03-12T21:40:50.234Z,6.40
2019-03-12T21:43:55.310Z,5.93
2019-03-12T21:47:00.570Z,4.90
2019-03-12T21:50:08.525Z,6.43
2019-03-12T21:53:14.691Z,5.63
2019-03-12T21:56:19.950Z,6.27
2019-03-12T21:59:27.021Z,8.67
2019-03-12T22:02:35.202Z,8.27
2019-03-12T22:05:40.389Z,7.40
2019-03-12T22:08:45.561Z,6.27
2019-03-12T22:11:51.718Z,5.63
2019-03-12T22:14:57.126Z,6.77
2019-03-12T22:18:02.503Z,5.67
2019-03-12T22:21:07.436Z,5.70
2019-03-12T22:24:14.681Z,6.13
2019-03-12T22:27:19.861Z,6.77
2019-03-12T22:30:26.269Z,9.10
2019-03-12T22:33:31.175Z,7.50
2019-03-12T22:36:36.093Z,5.53
2019-03-12T22:39:41.179Z,7.70
2019-03-12T22:42:46.235Z,6.43
2019-03-12T22:45:51.410Z,6.67
2019-03-12T22:48:56.605Z,6.07
2019-03-12T22:52:03.727Z,8.47
2019-03-12T22:55:08.975Z,6.47
2019-03-12T22:58:15.869Z,10.10
2019-03-12T23:01:21.144Z,5.87
2019-03-12T23:04:26.359Z,7.27
2019-03-12T23:07:31.415Z,8.93
2019-03-12T23:10:37.462Z,7.63
2019-03-12T23:13:42.642Z,6.20
2019-03-12T23:16:47.697Z,6.50
2019-03-12T23:19:52.610Z,5.90
2019-03-12T23:22:59.662Z,7.53
2019-03-12T23:26:04.841Z,6.07
2019-03-12T23:29:11.929Z,6.60
2019-03-12T23:32:18.016Z,6.17
2019-03-12T23:35:24.444Z,6.63
2019-03-12T23:38:29.262Z,7.73
2019-03-12T23:41:38.714Z,7.90
2019-03-12T23:44:43.754Z,5.07
2019-03-12T23:47:51.323Z,6.13
2019-03-12T23:50:56.421Z,5.60
2019-03-12T23:54:01.532Z,6.10
2019-03-12T23:57:06.622Z,8.73
